createdAt,value
2023-03-31T00:01:53.114Z,100.00
2023-03-31T00:04:24.424Z,100.00
2023-03-31T00:06:54.647Z,100.00
2023-03-31T00:09:24.892Z,100.00
2023-03-31T00:11:52.459Z,100.00
2023-03-31T00:14:20.916Z,100.00
2023-03-31T00:16:47.666Z,100.00
2023-03-31T00:19:21.423Z,100.00
2023-03-31T00:21:49.160Z,100.00
2023-03-31T00:24:16.544Z,100.00
2023-03-31T00:26:43.850Z,100.00
2023-03-31T00:29:13.017Z,100.00
2023-03-31T00:31:40.131Z,100.00
2023-03-31T00:34:07.461Z,100.00
2023-03-31T00:36:36.978Z,100.00
2023-03-31T00:39:09.703Z,100.00
2023-03-31T00:41:39.415Z,100.00
2023-03-31T00:44:19.138Z,100.00
2023-03-31T00:46:55.721Z,100.00
2023-03-31T00:49:24.769Z,100.00
2023-03-31T00:51:52.566Z,100.00
2023-03-31T00:54:21.683Z,100.00
2023-03-31T00:56:49.622Z,100.00
2023-03-31T00:59:16.887Z,100.00
2023-03-31T01:01:45.988Z,100.00
2023-03-31T01:04:14.284Z,100.00
2023-03-31T01:06:50.435Z,100.00
2023-03-31T01:09:17.170Z,100.00
2023-03-31T01:11:46.480Z,100.00
2023-03-31T01:14:13.360Z,100.00
2023-03-31T01:16:40.137Z,100.00
2023-03-31T01:19:12.938Z,100.00
2023-03-31T01:21:53.924Z,100.00
2023-03-31T01:24:35.795Z,100.00
2023-03-31T01:27:46.591Z,100.00
2023-03-31T01:30:34.975Z,100.00
2023-03-31T01:33:14.586Z,100.00
2023-03-31T01:36:13.832Z,100.00
2023-03-31T01:39:07.338Z,100.00
2023-03-31T01:42:02.596Z,100.00
2023-03-31T01:44:44.583Z,100.00
2023-03-31T01:47:22.924Z,100.00
2023-03-31T01:50:03.436Z,100.00
2023-03-31T01:52:56.608Z,100.00
2023-03-31T01:55:25.509Z,100.00
2023-03-31T01:58:00.363Z,100.00
2023-03-31T02:00:34.007Z,100.00
2023-03-31T02:03:12.916Z,100.00
2023-03-31T02:05:50.466Z,100.00
2023-03-31T02:08:23.204Z,100.00
2023-03-31T02:10:52.194Z,100.00
2023-03-31T02:13:19.201Z,100.00
2023-03-31T02:15:48.414Z,100.00
2023-03-31T02:18:18.711Z,100.00
2023-03-31T02:20:48.460Z,100.00
2023-03-31T02:23:18.002Z,100.00
2023-03-31T02:25:51.561Z,100.00
2023-03-31T02:28:24.202Z,100.00
2023-03-31T02:31:15.534Z,100.00
2023-03-31T02:33:42.360Z,100.00
2023-03-31T02:36:09.657Z,100.00
2023-03-31T02:38:42.008Z,100.00
2023-03-31T02:41:09.213Z,100.00
2023-03-31T02:43:36.184Z,100.00
2023-03-31T02:46:03.144Z,100.00
2023-03-31T02:48:50.756Z,100.00
2023-03-31T02:51:42.441Z,100.00
2023-03-31T02:54:23.212Z,100.00
2023-03-31T02:57:26.349Z,100.00
2023-03-31T03:00:14.548Z,100.00
2023-03-31T03:03:21.385Z,100.00
2023-03-31T03:05:54.972Z,100.00
2023-03-31T03:09:13.057Z,100.00
2023-03-31T03:11:51.674Z,100.00
2023-03-31T03:14:30.722Z,100.00
2023-03-31T03:17:10.984Z,100.00
2023-03-31T03:19:37.856Z,100.00
2023-03-31T03:22:04.717Z,100.00
2023-03-31T03:24:34.503Z,100.00
2023-03-31T03:27:01.323Z,100.00
2023-03-31T03:29:28.555Z,100.00
2023-03-31T03:31:55.557Z,100.00
2023-03-31T03:34:22.288Z,100.00
2023-03-31T03:36:49.041Z,100.00
2023-03-31T03:39:15.961Z,100.00
2023-03-31T03:41:42.651Z,100.00
2023-03-31T03:44:09.364Z,100.00
2023-03-31T03:46:36.038Z,100.00
2023-03-31T03:49:02.814Z,100.00
2023-03-31T03:51:29.544Z,100.00
2023-03-31T03:53:56.222Z,100.00
2023-03-31T03:56:23.173Z,100.00
2023-03-31T03:58:51.022Z,100.00
2023-03-31T04:01:18.372Z,100.00
2023-03-31T04:03:45.528Z,100.00
2023-03-31T04:06:12.186Z,100.00
2023-03-31T04:08:38.986Z,100.00
2023-03-31T04:11:14.101Z,100.00
2023-03-31T04:13:41.971Z,100.00
2023-03-31T04:16:08.804Z,100.00
2023-03-31T04:18:37.345Z,100.00
2023-03-31T04:21:04.336Z,100.00
2023-03-31T04:23:46.975Z,100.00
2023-03-31T04:26:14.726Z,100.00
2023-03-31T04:28:43.030Z,100.00
2023-03-31T04:31:10.895Z,100.00
2023-03-31T04:33:40.524Z,100.00
2023-03-31T04:36:26.115Z,100.00
2023-03-31T04:38:55.039Z,100.00
2023-03-31T04:41:27.855Z,100.00
2023-03-31T04:43:55.815Z,100.00
2023-03-31T04:46:44.962Z,100.00
2023-03-31T04:49:11.793Z,100.00
2023-03-31T04:51:38.454Z,100.00
2023-03-31T04:54:07.772Z,100.00
2023-03-31T04:56:34.442Z,100.00
2023-03-31T04:59:01.252Z,100.00
2023-03-31T05:01:28.254Z,100.00
2023-03-31T05:03:55.345Z,100.00
2023-03-31T05:06:22.000Z,100.00
2023-03-31T05:08:48.683Z,100.00
2023-03-31T05:11:15.569Z,100.00
2023-03-31T05:13:42.420Z,100.00
2023-03-31T05:16:11.067Z,100.00
2023-03-31T05:18:38.363Z,100.00
2023-03-31T05:21:15.578Z,100.00
2023-03-31T05:23:42.864Z,100.00
2023-03-31T05:26:09.745Z,100.00
2023-03-31T05:28:37.180Z,100.00
2023-03-31T05:31:04.735Z,100.00
2023-03-31T05:33:31.774Z,100.00
2023-03-31T05:36:00.408Z,100.00
2023-03-31T05:38:31.766Z,100.00
2023-03-31T05:40:58.698Z,100.00
2023-03-31T05:43:25.718Z,100.00
2023-03-31T05:45:52.544Z,100.00
2023-03-31T05:48:19.534Z,100.00
2023-03-31T05:50:46.319Z,100.00
2023-03-31T05:53:12.983Z,100.00
2023-03-31T05:55:40.031Z,100.00
2023-03-31T05:58:06.988Z,100.00
2023-03-31T06:00:34.035Z,100.00
2023-03-31T06:03:00.879Z,100.00
2023-03-31T06:05:27.844Z,100.00
2023-03-31T06:07:55.650Z,100.00
2023-03-31T06:10:22.343Z,100.00
2023-03-31T06:12:49.073Z,100.00
2023-03-31T06:15:16.285Z,100.00
2023-03-31T06:17:43.103Z,100.00
2023-03-31T06:20:20.432Z,100.00
2023-03-31T06:22:51.256Z,100.00
2023-03-31T06:25:18.001Z,100.00
2023-03-31T06:27:44.715Z,100.00
2023-03-31T06:30:12.044Z,100.00
2023-03-31T06:32:38.912Z,100.00
2023-03-31T06:35:06.109Z,100.00
2023-03-31T06:37:32.870Z,100.00
2023-03-31T06:39:59.628Z,100.00
2023-03-31T06:42:26.334Z,100.00
2023-03-31T06:44:53.107Z,100.00
2023-03-31T06:47:19.876Z,100.00
2023-03-31T06:49:46.617Z,100.00
2023-03-31T06:52:13.361Z,100.00
2023-03-31T06:54:40.200Z,100.00
2023-03-31T06:57:06.911Z,100.00
2023-03-31T06:59:33.601Z,100.00
2023-03-31T07:02:00.838Z,100.00
2023-03-31T07:04:27.728Z,100.00
2023-03-31T07:06:54.435Z,100.00
2023-03-31T07:09:23.535Z,100.00
2023-03-31T07:11:50.822Z,100.00
2023-03-31T07:14:17.534Z,100.00
2023-03-31T07:16:44.449Z,100.00
2023-03-31T07:19:11.440Z,100.00
2023-03-31T07:21:38.161Z,100.00
2023-03-31T07:24:07.078Z,100.00
2023-03-31T07:26:33.876Z,100.00
2023-03-31T07:29:00.625Z,100.00
2023-03-31T07:31:27.442Z,100.00
2023-03-31T07:33:54.222Z,100.00
2023-03-31T07:36:22.021Z,97.67
2023-03-31T07:38:49.959Z,96.79
2023-03-31T07:41:19.343Z,95.21
2023-03-31T07:43:46.550Z,92.92
2023-03-31T07:46:25.120Z,91.22
2023-03-31T07:48:53.352Z,90.14
2023-03-31T07:51:22.641Z,87.71
2023-03-31T07:53:49.636Z,85.85
2023-03-31T07:56:17.091Z,83.60
2023-03-31T07:58:44.429Z,82.78
2023-03-31T08:01:17.561Z,81.98
2023-03-31T08:03:46.449Z,77.70
2023-03-31T08:06:18.876Z,76.17
2023-03-31T08:08:45.681Z,75.11
2023-03-31T08:11:12.370Z,73.04
2023-03-31T08:13:39.105Z,71.06
2023-03-31T08:16:06.457Z,70.82
2023-03-31T08:18:33.446Z,70.37
2023-03-31T08:21:00.139Z,69.74
2023-03-31T08:23:27.023Z,68.67
2023-03-31T08:25:53.736Z,68.24
2023-03-31T08:28:20.498Z,67.81
2023-03-31T08:30:47.262Z,68.52
2023-03-31T08:33:14.304Z,68.14
2023-03-31T08:35:41.140Z,67.78
2023-03-31T08:38:07.859Z,67.91
2023-03-31T08:40:34.572Z,68.25
2023-03-31T08:43:19.270Z,68.60
2023-03-31T08:45:47.369Z,68.40
2023-03-31T08:48:38.953Z,68.17
2023-03-31T08:51:14.700Z,68.11
2023-03-31T08:53:44.525Z,67.77
2023-03-31T08:56:17.900Z,67.78
2023-03-31T08:58:47.147Z,67.54
2023-03-31T09:01:31.302Z,67.98
2023-03-31T09:04:27.332Z,67.71
2023-03-31T09:07:10.343Z,67.88
2023-03-31T09:09:38.821Z,68.30
2023-03-31T09:12:10.798Z,68.50
2023-03-31T09:15:09.104Z,68.86
2023-03-31T09:17:45.259Z,68.45
2023-03-31T09:20:31.896Z,67.83
2023-03-31T09:23:19.098Z,67.76
2023-03-31T09:25:46.713Z,67.57
2023-03-31T09:28:20.466Z,67.37
2023-03-31T09:30:52.283Z,67.72
2023-03-31T09:33:28.470Z,67.72
2023-03-31T09:35:55.317Z,67.79
2023-03-31T09:38:22.126Z,67.05
2023-03-31T09:40:49.065Z,67.28
2023-03-31T09:43:23.031Z,66.36
2023-03-31T09:46:07.887Z,64.60
2023-03-31T09:48:36.636Z,64.38
2023-03-31T09:51:18.489Z,64.09
2023-03-31T09:54:00.164Z,64.07
2023-03-31T09:56:54.046Z,62.81
2023-03-31T09:59:34.789Z,61.37
2023-03-31T10:02:23.031Z,61.79
2023-03-31T10:04:50.172Z,60.84
2023-03-31T10:07:21.801Z,60.96
2023-03-31T10:09:48.946Z,60.86
2023-03-31T10:12:26.744Z,60.26
2023-03-31T10:14:55.141Z,60.62
2023-03-31T10:17:23.807Z,60.71
2023-03-31T10:19:54.852Z,61.11
2023-03-31T10:22:21.632Z,61.62
2023-03-31T10:24:50.084Z,61.25
2023-03-31T10:27:28.651Z,61.29
2023-03-31T10:30:00.106Z,60.94
2023-03-31T10:32:29.062Z,60.40
2023-03-31T10:34:57.365Z,59.34
2023-03-31T10:37:26.518Z,58.18
2023-03-31T10:40:02.351Z,57.34
2023-03-31T10:42:29.113Z,56.72
2023-03-31T10:45:36.548Z,55.67
2023-03-31T10:48:04.974Z,55.83
2023-03-31T10:50:36.618Z,55.39
2023-03-31T10:53:11.356Z,55.43
2023-03-31T10:55:44.725Z,56.00
2023-03-31T10:58:33.259Z,55.69
2023-03-31T11:01:29.938Z,55.84
2023-03-31T11:04:09.747Z,56.72
2023-03-31T11:06:49.896Z,56.76
2023-03-31T11:09:46.475Z,57.00
2023-03-31T11:12:21.894Z,57.04
2023-03-31T11:15:16.581Z,57.51
2023-03-31T11:17:55.854Z,57.42
2023-03-31T11:20:35.506Z,56.67
2023-03-31T11:23:24.038Z,56.35
2023-03-31T11:26:06.621Z,56.47
2023-03-31T11:28:58.296Z,57.15
2023-03-31T11:31:37.408Z,55.14
2023-03-31T11:34:32.498Z,54.59
2023-03-31T11:37:13.364Z,54.58
2023-03-31T11:39:54.644Z,54.44
2023-03-31T11:42:32.123Z,55.04
2023-03-31T11:45:04.332Z,55.20
2023-03-31T11:47:35.101Z,55.62
2023-03-31T11:50:07.515Z,55.71
2023-03-31T11:52:35.611Z,55.42
2023-03-31T11:55:15.699Z,55.24
2023-03-31T11:57:46.973Z,55.97
2023-03-31T12:00:20.898Z,55.67
2023-03-31T12:02:54.945Z,55.23
2023-03-31T12:05:23.041Z,55.39
2023-03-31T12:07:58.962Z,55.20
2023-03-31T12:10:36.010Z,55.71
2023-03-31T12:13:26.444Z,54.89
2023-03-31T12:16:02.972Z,52.40
2023-03-31T12:18:33.927Z,51.46
2023-03-31T12:21:03.500Z,51.34
2023-03-31T12:23:34.487Z,50.51
2023-03-31T12:26:36.415Z,50.32
2023-03-31T12:29:31.620Z,50.88
2023-03-31T12:32:03.948Z,51.86
2023-03-31T12:34:31.480Z,52.67
2023-03-31T12:37:32.269Z,53.23
2023-03-31T12:40:16.646Z,53.59
2023-03-31T12:42:59.593Z,53.93
2023-03-31T12:45:31.478Z,55.04
2023-03-31T12:47:58.216Z,54.62
2023-03-31T12:50:54.250Z,54.06
2023-03-31T12:53:44.886Z,53.95
2023-03-31T12:56:11.651Z,53.57
2023-03-31T12:58:41.692Z,53.62
2023-03-31T13:01:16.349Z,54.08
2023-03-31T13:04:21.626Z,53.92
2023-03-31T13:06:59.822Z,54.41
2023-03-31T13:09:47.070Z,54.09
2023-03-31T13:12:16.751Z,53.48
2023-03-31T13:14:45.633Z,53.51
2023-03-31T13:17:25.172Z,53.23
2023-03-31T13:19:52.457Z,53.22
2023-03-31T13:22:36.590Z,53.42
2023-03-31T13:25:31.447Z,54.07
2023-03-31T13:28:04.612Z,53.71
2023-03-31T13:30:37.189Z,54.42
2023-03-31T13:33:22.049Z,55.01
2023-03-31T13:35:57.697Z,55.43
2023-03-31T13:38:34.754Z,55.03
2023-03-31T13:41:13.643Z,55.30
2023-03-31T13:43:43.911Z,55.88
2023-03-31T13:46:32.329Z,56.31
2023-03-31T13:49:20.716Z,56.38
2023-03-31T13:51:58.419Z,55.97
2023-03-31T13:54:49.341Z,55.78
2023-03-31T13:57:36.032Z,54.97
2023-03-31T14:00:21.800Z,55.11
2023-03-31T14:03:12.894Z,55.37
2023-03-31T14:05:43.557Z,55.62
2023-03-31T14:08:12.865Z,56.33
2023-03-31T14:10:41.397Z,56.92
2023-03-31T14:13:12.291Z,56.64
2023-03-31T14:15:51.429Z,56.56
2023-03-31T14:18:38.702Z,57.11
2023-03-31T14:21:11.677Z,57.61
2023-03-31T14:23:41.387Z,57.50
2023-03-31T14:26:27.140Z,57.82
2023-03-31T14:29:19.701Z,58.73
2023-03-31T14:32:24.503Z,59.29
2023-03-31T14:35:03.939Z,59.24
2023-03-31T14:37:31.075Z,59.39
2023-03-31T14:39:59.089Z,59.56
2023-03-31T14:42:33.046Z,59.69
2023-03-31T14:45:04.870Z,59.44
2023-03-31T14:47:32.079Z,59.63
2023-03-31T14:50:06.378Z,55.84
2023-03-31T14:52:35.883Z,55.68
2023-03-31T14:55:02.623Z,57.55
2023-03-31T14:57:33.311Z,57.31
2023-03-31T15:00:02.470Z,55.81
2023-03-31T15:02:37.551Z,54.46
2023-03-31T15:05:07.829Z,52.38
2023-03-31T15:07:34.959Z,52.92
2023-03-31T15:10:02.622Z,50.86
2023-03-31T15:12:29.753Z,52.33
2023-03-31T15:15:00.406Z,56.13
2023-03-31T15:17:35.180Z,57.89
2023-03-31T15:20:04.945Z,58.98
2023-03-31T15:22:31.762Z,60.56
2023-03-31T15:24:58.537Z,61.45
2023-03-31T15:27:38.996Z,63.66
2023-03-31T15:30:07.816Z,66.25
2023-03-31T15:32:39.442Z,67.93
2023-03-31T15:35:21.169Z,71.10
2023-03-31T15:37:51.063Z,71.59
2023-03-31T15:40:21.912Z,76.72
2023-03-31T15:43:01.899Z,81.40
2023-03-31T15:45:55.057Z,89.91
2023-03-31T15:48:33.986Z,92.78
2023-03-31T15:51:22.893Z,97.36
2023-03-31T15:53:52.675Z,99.84
2023-03-31T15:56:27.300Z,98.37
2023-03-31T15:59:05.451Z,99.68
2023-03-31T16:02:00.001Z,99.93
2023-03-31T16:04:32.446Z,100.00
2023-03-31T16:07:07.661Z,99.45
2023-03-31T16:09:51.733Z,99.47
2023-03-31T16:12:28.924Z,100.00
2023-03-31T16:15:14.344Z,100.00
2023-03-31T16:17:57.444Z,100.00
2023-03-31T16:20:28.556Z,100.00
2023-03-31T16:22:58.923Z,100.00
2023-03-31T16:25:27.857Z,100.00
2023-03-31T16:27:57.148Z,99.12
2023-03-31T16:30:41.611Z,97.90
2023-03-31T16:33:14.401Z,96.62
2023-03-31T16:35:49.125Z,97.25
2023-03-31T16:38:16.734Z,96.25
2023-03-31T16:40:48.093Z,96.89
2023-03-31T16:43:23.012Z,96.71
2023-03-31T16:45:51.727Z,98.40
2023-03-31T16:48:19.896Z,96.25
2023-03-31T16:50:48.266Z,97.35
2023-03-31T16:53:16.760Z,98.24
2023-03-31T16:55:43.575Z,98.22
2023-03-31T16:58:12.052Z,98.13
2023-03-31T17:00:40.704Z,97.61
2023-03-31T17:03:08.926Z,97.17
2023-03-31T17:05:43.639Z,96.95
2023-03-31T17:08:11.439Z,96.40
2023-03-31T17:10:39.338Z,96.04
2023-03-31T17:13:06.838Z,96.88
2023-03-31T17:15:36.418Z,95.39
2023-03-31T17:18:04.710Z,95.58
2023-03-31T17:20:32.877Z,95.99
2023-03-31T17:22:59.936Z,94.54
2023-03-31T17:25:26.890Z,95.21
2023-03-31T17:27:55.879Z,92.98
2023-03-31T17:30:23.566Z,92.21
2023-03-31T17:32:51.561Z,91.68
2023-03-31T17:35:21.705Z,91.94
2023-03-31T17:37:50.696Z,90.89
2023-03-31T17:40:17.507Z,89.73
2023-03-31T17:42:44.803Z,89.21
2023-03-31T17:45:12.833Z,88.24
2023-03-31T17:47:39.942Z,89.02
2023-03-31T17:50:10.258Z,88.89
2023-03-31T17:52:37.372Z,88.08
2023-03-31T17:55:04.703Z,87.65
2023-03-31T17:57:32.187Z,88.17
2023-03-31T17:59:59.403Z,87.41
2023-03-31T18:02:26.129Z,86.91
2023-03-31T18:04:53.551Z,87.47
2023-03-31T18:07:23.220Z,87.30
2023-03-31T18:09:49.968Z,87.68
2023-03-31T18:12:16.792Z,87.42
2023-03-31T18:14:43.498Z,87.17
2023-03-31T18:17:14.835Z,86.96
2023-03-31T18:19:42.921Z,86.90
2023-03-31T18:22:09.964Z,87.84
2023-03-31T18:24:38.482Z,88.42
2023-03-31T18:27:05.771Z,88.37
2023-03-31T18:29:32.665Z,88.78
2023-03-31T18:31:59.532Z,88.50
2023-03-31T18:34:26.940Z,88.61
2023-03-31T18:36:54.100Z,88.66
2023-03-31T18:39:21.536Z,87.51
2023-03-31T18:41:48.991Z,86.59
2023-03-31T18:44:18.896Z,86.20
2023-03-31T18:46:46.234Z,84.89
2023-03-31T18:49:14.597Z,85.04
2023-03-31T18:51:41.352Z,84.96
2023-03-31T18:54:08.222Z,85.70
2023-03-31T18:56:34.906Z,85.77
2023-03-31T18:59:04.281Z,85.57
2023-03-31T19:01:32.765Z,85.06
2023-03-31T19:03:59.591Z,85.24
2023-03-31T19:06:26.869Z,85.65
2023-03-31T19:08:56.151Z,86.80
2023-03-31T19:11:24.001Z,87.62
2023-03-31T19:13:50.846Z,87.37
2023-03-31T19:16:18.713Z,88.66
2023-03-31T19:18:45.544Z,87.64
2023-03-31T19:21:12.341Z,86.95
2023-03-31T19:23:39.258Z,86.84
2023-03-31T19:26:05.960Z,85.74
2023-03-31T19:28:32.754Z,86.22
2023-03-31T19:30:59.820Z,87.48
2023-03-31T19:33:27.127Z,87.54
2023-03-31T19:35:54.265Z,87.53
2023-03-31T19:38:22.037Z,87.60
2023-03-31T19:40:49.154Z,87.81
2023-03-31T19:43:20.811Z,88.88
2023-03-31T19:45:50.608Z,88.76
2023-03-31T19:48:17.428Z,89.29
2023-03-31T19:50:54.092Z,91.03
2023-03-31T19:53:22.314Z,92.15
2023-03-31T19:55:57.446Z,92.76
2023-03-31T19:58:24.194Z,92.80
2023-03-31T20:00:52.838Z,93.16
2023-03-31T20:03:20.700Z,91.75
2023-03-31T20:05:48.069Z,93.05
2023-03-31T20:08:14.991Z,93.70
2023-03-31T20:10:42.546Z,94.88
2023-03-31T20:13:09.996Z,95.95
2023-03-31T20:15:37.866Z,97.74
2023-03-31T20:18:08.569Z,97.14
2023-03-31T20:20:35.458Z,98.34
2023-03-31T20:23:03.618Z,98.81
2023-03-31T20:25:30.736Z,99.04
2023-03-31T20:27:57.621Z,99.20
2023-03-31T20:30:24.464Z,99.59
2023-03-31T20:32:51.234Z,99.59
2023-03-31T20:35:18.310Z,100.00
2023-03-31T20:37:44.980Z,100.00
2023-03-31T20:40:12.226Z,100.00
2023-03-31T20:42:38.919Z,100.00
2023-03-31T20:45:06.747Z,100.00
2023-03-31T20:47:35.387Z,100.00
2023-03-31T20:50:02.706Z,100.00
2023-03-31T20:52:29.450Z,100.00
2023-03-31T20:54:56.434Z,100.00
2023-03-31T20:57:24.454Z,100.00
2023-03-31T20:59:51.740Z,100.00
2023-03-31T21:02:18.915Z,100.00
2023-03-31T21:04:46.761Z,100.00
2023-03-31T21:07:14.412Z,100.00
2023-03-31T21:09:41.309Z,100.00
2023-03-31T21:12:08.045Z,100.00
2023-03-31T21:14:35.026Z,100.00
2023-03-31T21:17:01.963Z,100.00
2023-03-31T21:19:28.891Z,100.00
2023-03-31T21:21:55.570Z,97.35
2023-03-31T21:24:22.599Z,94.16
2023-03-31T21:26:49.334Z,93.04
2023-03-31T21:29:16.144Z,91.96
2023-03-31T21:31:45.026Z,90.57
2023-03-31T21:34:11.908Z,90.00
2023-03-31T21:36:38.722Z,88.42
2023-03-31T21:39:05.917Z,86.89
2023-03-31T21:41:32.661Z,86.57
2023-03-31T21:44:01.763Z,86.33
2023-03-31T21:46:31.175Z,84.72
2023-03-31T21:48:58.163Z,85.18
2023-03-31T21:51:25.815Z,85.17
2023-03-31T21:53:55.550Z,85.52
2023-03-31T21:56:24.465Z,84.44
2023-03-31T21:58:51.225Z,83.52
2023-03-31T22:01:18.775Z,83.77
2023-03-31T22:03:46.008Z,83.03
2023-03-31T22:06:12.851Z,82.57
2023-03-31T22:08:40.020Z,81.44
2023-03-31T22:11:08.361Z,81.25
2023-03-31T22:13:36.029Z,80.24
2023-03-31T22:16:03.408Z,80.56
2023-03-31T22:18:30.709Z,80.52
2023-03-31T22:20:58.100Z,80.23
2023-03-31T22:23:24.791Z,80.91
2023-03-31T22:25:51.540Z,80.56
2023-03-31T22:28:18.418Z,81.14
2023-03-31T22:30:45.161Z,81.88
2023-03-31T22:33:11.953Z,81.85
2023-03-31T22:35:38.774Z,82.39
2023-03-31T22:38:06.516Z,81.84
2023-03-31T22:40:36.342Z,80.92
2023-03-31T22:43:03.233Z,81.88
2023-03-31T22:45:30.156Z,81.63
2023-03-31T22:47:57.111Z,81.58
2023-03-31T22:50:27.482Z,82.26
2023-03-31T22:52:54.323Z,81.35
2023-03-31T22:55:21.109Z,81.72
2023-03-31T22:57:49.866Z,81.75
2023-03-31T23:00:17.200Z,81.70
2023-03-31T23:02:43.961Z,81.94
2023-03-31T23:05:10.736Z,81.53
2023-03-31T23:07:38.126Z,82.48
2023-03-31T23:10:05.480Z,83.23
2023-03-31T23:12:32.150Z,81.96
2023-03-31T23:14:58.812Z,82.05
2023-03-31T23:17:25.510Z,82.91
2023-03-31T23:19:52.741Z,83.87
2023-03-31T23:22:19.455Z,82.34
2023-03-31T23:24:50.138Z,82.57
2023-03-31T23:27:16.845Z,82.30
2023-03-31T23:29:44.149Z,82.59
2023-03-31T23:32:11.132Z,83.05
2023-03-31T23:34:42.037Z,83.66
2023-03-31T23:37:12.827Z,83.63
2023-03-31T23:39:39.966Z,83.19
2023-03-31T23:42:07.422Z,82.34
2023-03-31T23:44:34.554Z,81.26
2023-03-31T23:47:02.236Z,81.01
2023-03-31T23:49:28.872Z,81.56
2023-03-31T23:51:55.610Z,81.34
2023-03-31T23:54:22.369Z,80.94
2023-03-31T23:56:49.573Z,80.75
2023-03-31T23:59:16.746Z,80.82
